createdAt,value
2018-04-22T00:00:58.118Z,0.00
2018-04-22T00:01:58.110Z,0.00
2018-04-22T00:02:58.112Z,0.00
2018-04-22T00:03:58.110Z,0.00
2018-04-22T00:04:58.177Z,0.00
2018-04-22T00:05:58.106Z,0.00
2018-04-22T00:06:58.101Z,0.00
2018-04-22T00:07:58.107Z,0.00
2018-04-22T00:08:58.103Z,0.00
2018-04-22T00:09:58.093Z,0.00
2018-04-22T00:10:58.094Z,0.00
2018-04-22T00:11:58.091Z,0.00
2018-04-22T00:12:58.080Z,0.00
2018-04-22T00:13:58.083Z,0.00
2018-04-22T00:14:58.081Z,0.00
2018-04-22T00:15:58.079Z,0.00
2018-04-22T00:16:58.076Z,0.00
2018-04-22T00:17:58.074Z,0.00
2018-04-22T00:18:58.073Z,0.00
2018-04-22T00:19:58.070Z,0.00
2018-04-22T00:20:58.066Z,0.00
2018-04-22T00:21:58.063Z,0.00
2018-04-22T00:22:58.063Z,0.00
2018-04-22T00:23:58.058Z,0.00
2018-04-22T00:24:58.054Z,0.00
2018-04-22T00:25:58.054Z,0.00
2018-04-22T00:26:58.047Z,0.00
2018-04-22T00:27:58.048Z,0.00
2018-04-22T00:28:58.045Z,0.00
2018-04-22T00:29:58.041Z,0.00
2018-04-22T00:30:58.047Z,0.00
2018-04-22T00:31:58.040Z,0.00
2018-04-22T00:32:58.035Z,0.00
2018-04-22T00:33:58.034Z,0.00
2018-04-22T00:34:58.029Z,0.00
2018-04-22T00:35:58.026Z,0.00
2018-04-22T00:36:58.028Z,0.00
2018-04-22T00:37:58.024Z,0.00
2018-04-22T00:38:58.019Z,0.00
2018-04-22T00:39:58.024Z,0.00
2018-04-22T00:40:58.011Z,0.00
2018-04-22T00:41:58.020Z,0.00
2018-04-22T00:42:58.007Z,0.00
2018-04-22T00:43:58.006Z,0.00
2018-04-22T00:44:58.001Z,0.00
2018-04-22T00:45:57.997Z,0.00
2018-04-22T00:46:57.996Z,0.00
2018-04-22T00:47:57.993Z,0.00
2018-04-22T00:48:57.992Z,0.00
2018-04-22T00:49:57.991Z,0.00
2018-04-22T00:50:57.987Z,0.00
2018-04-22T00:51:57.983Z,0.00
2018-04-22T00:52:57.989Z,0.00
2018-04-22T00:53:57.980Z,0.00
2018-04-22T00:54:57.976Z,0.00
2018-04-22T00:55:57.974Z,0.00
2018-04-22T00:56:57.967Z,0.00
2018-04-22T00:57:57.968Z,0.00
2018-04-22T00:58:57.966Z,0.00
2018-04-22T00:59:57.960Z,0.00
2018-04-22T01:00:57.965Z,0.00
2018-04-22T01:01:57.955Z,0.00
2018-04-22T01:02:57.954Z,0.00
2018-04-22T01:03:57.960Z,0.00
2018-04-22T01:04:57.947Z,0.00
2018-04-22T01:05:57.951Z,0.00
2018-04-22T01:06:57.943Z,0.00
2018-04-22T01:07:57.941Z,0.00
2018-04-22T01:08:57.935Z,0.00
2018-04-22T01:09:57.948Z,0.00
2018-04-22T01:10:57.931Z,0.00
2018-04-22T01:11:57.931Z,0.00
2018-04-22T01:12:57.923Z,0.00
2018-04-22T01:13:57.924Z,0.00
2018-04-22T01:14:57.919Z,0.00
2018-04-22T01:15:57.923Z,0.00
2018-04-22T01:16:57.916Z,0.00
2018-04-22T01:17:57.911Z,0.00
2018-04-22T01:18:57.906Z,0.00
2018-04-22T01:19:57.905Z,0.00
2018-04-22T01:20:57.908Z,0.00
2018-04-22T01:21:57.902Z,0.00
2018-04-22T01:22:57.895Z,0.00
2018-04-22T01:23:57.893Z,0.00
2018-04-22T01:24:57.899Z,0.00
2018-04-22T01:25:57.889Z,0.00
2018-04-22T01:26:57.888Z,0.00
2018-04-22T01:27:57.888Z,0.00
2018-04-22T01:28:57.875Z,0.00
2018-04-22T01:29:57.880Z,0.00
2018-04-22T01:30:57.870Z,0.00
2018-04-22T01:31:57.869Z,0.00
2018-04-22T01:32:57.872Z,0.00
2018-04-22T01:33:57.866Z,0.00
2018-04-22T01:34:57.866Z,0.00
2018-04-22T01:35:57.861Z,0.00
2018-04-22T01:36:57.856Z,0.00
2018-04-22T01:37:57.854Z,0.00
2018-04-22T01:38:57.859Z,0.00
2018-04-22T01:39:57.848Z,0.00
2018-04-22T01:40:57.846Z,0.00
2018-04-22T01:41:57.839Z,0.00
2018-04-22T01:42:57.842Z,0.00
2018-04-22T01:43:57.835Z,0.00
2018-04-22T01:44:57.833Z,0.00
2018-04-22T01:45:57.829Z,0.00
2018-04-22T01:46:57.831Z,0.00
2018-04-22T01:47:57.822Z,0.00
2018-04-22T01:48:57.817Z,0.00
2018-04-22T01:49:57.813Z,0.00
2018-04-22T01:50:57.814Z,0.00
2018-04-22T01:51:57.808Z,0.00
2018-04-22T01:52:57.805Z,0.00
2018-04-22T01:53:57.799Z,0.00
2018-04-22T01:54:57.797Z,0.00
2018-04-22T01:55:57.803Z,0.00
2018-04-22T01:56:57.792Z,0.00
2018-04-22T01:57:57.794Z,0.00
2018-04-22T01:58:57.784Z,0.00
2018-04-22T01:59:57.780Z,0.00
2018-04-22T02:00:57.783Z,0.00
2018-04-22T02:01:57.774Z,0.00
2018-04-22T02:02:57.769Z,0.00
2018-04-22T02:03:57.768Z,0.00
2018-04-22T02:04:57.762Z,0.00
2018-04-22T02:05:57.766Z,0.00
2018-04-22T02:06:57.755Z,0.00
2018-04-22T02:07:57.754Z,0.00
2018-04-22T02:08:57.753Z,0.00
2018-04-22T02:09:57.741Z,0.00
2018-04-22T02:10:57.744Z,0.00
2018-04-22T02:11:57.812Z,0.00
2018-04-22T02:12:57.737Z,0.00
2018-04-22T02:13:57.733Z,0.00
2018-04-22T02:14:57.729Z,0.00
2018-04-22T02:15:57.727Z,0.00
2018-04-22T02:16:57.727Z,0.00
2018-04-22T02:17:57.718Z,0.00
2018-04-22T02:18:57.718Z,0.00
2018-04-22T02:19:57.709Z,0.00
2018-04-22T02:20:57.707Z,0.00
2018-04-22T02:21:57.704Z,0.00
2018-04-22T02:22:57.702Z,0.00
2018-04-22T02:23:57.698Z,0.00
2018-04-22T02:24:57.694Z,0.00
2018-04-22T02:25:57.693Z,0.00
2018-04-22T02:26:57.689Z,0.00
2018-04-22T02:27:57.682Z,0.00
2018-04-22T02:28:57.683Z,0.00
2018-04-22T02:29:57.676Z,0.00
2018-04-22T02:30:57.673Z,0.00
2018-04-22T02:31:57.671Z,0.00
2018-04-22T02:32:57.667Z,0.00
2018-04-22T02:33:57.663Z,0.00
2018-04-22T02:34:57.659Z,0.00
2018-04-22T02:35:57.658Z,0.00
2018-04-22T02:36:57.649Z,0.00
2018-04-22T02:37:57.648Z,0.00
2018-04-22T02:38:57.647Z,0.00
2018-04-22T02:39:57.641Z,0.00
2018-04-22T02:40:57.637Z,0.00
2018-04-22T02:41:57.637Z,0.00
2018-04-22T02:42:57.633Z,0.00
2018-04-22T02:43:57.627Z,0.00
2018-04-22T02:44:57.622Z,0.00
2018-04-22T02:45:57.628Z,0.00
2018-04-22T02:46:57.618Z,0.00
2018-04-22T02:47:57.614Z,0.00
2018-04-22T02:48:57.609Z,0.00
2018-04-22T02:49:57.600Z,0.00
2018-04-22T02:50:57.601Z,0.00
2018-04-22T02:51:57.597Z,0.00
2018-04-22T02:52:57.592Z,0.00
2018-04-22T02:53:57.596Z,0.00
2018-04-22T02:54:57.583Z,0.00
2018-04-22T02:55:57.589Z,0.00
2018-04-22T02:56:57.576Z,0.00
2018-04-22T02:57:57.572Z,0.00
2018-04-22T02:58:57.578Z,0.00
2018-04-22T02:59:57.563Z,0.00
2018-04-22T03:00:57.565Z,0.00
2018-04-22T03:01:57.558Z,0.00
2018-04-22T03:02:57.552Z,0.00
2018-04-22T03:03:57.552Z,0.00
2018-04-22T03:04:57.544Z,0.00
2018-04-22T03:05:57.551Z,0.00
2018-04-22T03:06:57.541Z,0.00
2018-04-22T03:07:57.536Z,0.00
2018-04-22T03:08:57.530Z,0.00
2018-04-22T03:09:57.523Z,0.00
2018-04-22T03:10:57.523Z,0.00
2018-04-22T03:11:57.520Z,0.00
2018-04-22T03:12:57.516Z,0.00
2018-04-22T03:13:57.512Z,0.00
2018-04-22T03:14:57.509Z,0.00
2018-04-22T03:15:57.506Z,0.00
2018-04-22T03:16:57.501Z,0.00
2018-04-22T03:17:57.496Z,0.00
2018-04-22T03:18:57.493Z,0.00
2018-04-22T03:19:57.488Z,4.00
2018-04-22T03:20:57.484Z,0.00
2018-04-22T03:21:57.479Z,0.00
2018-04-22T03:22:57.479Z,4.00
2018-04-22T03:23:57.477Z,4.00
2018-04-22T03:24:57.470Z,4.00
2018-04-22T03:25:57.470Z,4.00
2018-04-22T03:26:57.462Z,4.00
2018-04-22T03:27:57.464Z,4.00
2018-04-22T03:28:57.450Z,4.00
2018-04-22T03:29:57.450Z,8.00
2018-04-22T03:30:57.451Z,8.00
2018-04-22T03:31:57.443Z,8.00
2018-04-22T03:32:57.440Z,12.00
2018-04-22T03:33:57.436Z,16.00
2018-04-22T03:34:57.436Z,16.00
2018-04-22T03:35:57.426Z,16.00
2018-04-22T03:36:57.423Z,20.00
2018-04-22T03:37:57.419Z,24.00
2018-04-22T03:38:57.412Z,24.00
2018-04-22T03:39:57.413Z,28.00
2018-04-22T03:40:57.408Z,32.00
2018-04-22T03:41:57.403Z,36.00
2018-04-22T03:42:57.402Z,40.00
2018-04-22T03:43:57.396Z,48.00
2018-04-22T03:44:57.392Z,52.00
2018-04-22T03:45:57.387Z,60.00
2018-04-22T03:46:57.386Z,68.00
2018-04-22T03:47:57.380Z,76.00
2018-04-22T03:48:57.377Z,84.00
2018-04-22T03:49:57.372Z,92.00
2018-04-22T03:50:57.367Z,104.00
2018-04-22T03:51:57.369Z,116.00
2018-04-22T03:52:57.357Z,124.00
2018-04-22T03:53:57.359Z,136.00
2018-04-22T03:54:57.355Z,148.00
2018-04-22T03:55:57.388Z,164.00
2018-04-22T03:56:57.345Z,176.00
2018-04-22T03:57:57.336Z,196.00
2018-04-22T03:58:57.340Z,208.00
2018-04-22T03:59:57.332Z,224.00
2018-04-22T04:00:57.328Z,244.00
2018-04-22T04:01:57.325Z,264.00
2018-04-22T04:02:57.319Z,284.00
2018-04-22T04:03:57.325Z,300.00
2018-04-22T04:04:57.313Z,320.00
2018-04-22T04:05:57.309Z,344.00
2018-04-22T04:06:57.304Z,364.00
2018-04-22T04:07:57.299Z,388.00
2018-04-22T04:08:57.297Z,412.00
2018-04-22T04:09:57.290Z,432.00
2018-04-22T04:10:57.289Z,460.00
2018-04-22T04:11:57.284Z,484.00
2018-04-22T04:12:57.284Z,512.00
2018-04-22T04:13:57.277Z,536.00
2018-04-22T04:14:57.283Z,564.00
2018-04-22T04:15:57.270Z,592.00
2018-04-22T04:16:57.261Z,616.00
2018-04-22T04:17:57.264Z,644.00
2018-04-22T04:18:57.258Z,676.00
2018-04-22T04:19:57.252Z,704.00
2018-04-22T04:20:57.247Z,732.00
2018-04-22T04:21:57.243Z,768.00
2018-04-22T04:22:57.247Z,808.00
2018-04-22T04:23:57.240Z,848.00
2018-04-22T04:24:57.235Z,884.00
2018-04-22T04:25:57.227Z,920.00
2018-04-22T04:26:57.221Z,952.00
2018-04-22T04:27:57.220Z,988.00
2018-04-22T04:28:57.216Z,1024.00
2018-04-22T04:29:57.215Z,1060.00
2018-04-22T04:30:57.209Z,1096.00
2018-04-22T04:31:57.205Z,1140.00
2018-04-22T04:32:57.201Z,1176.00
2018-04-22T04:33:57.197Z,1216.00
2018-04-22T04:34:57.194Z,1248.00
2018-04-22T04:35:57.186Z,1292.00
2018-04-22T04:36:57.183Z,1344.00
2018-04-22T04:37:57.180Z,1384.00
2018-04-22T04:38:57.181Z,1420.00
2018-04-22T04:39:57.188Z,1432.00
2018-04-22T04:40:57.169Z,1540.00
2018-04-22T04:41:57.168Z,1596.00
2018-04-22T04:42:57.162Z,1664.00
2018-04-22T04:43:57.161Z,1744.00
2018-04-22T04:44:57.154Z,1824.00
2018-04-22T04:45:57.147Z,1892.00
2018-04-22T04:46:57.147Z,1972.00
2018-04-22T04:47:57.143Z,2064.00
2018-04-22T04:48:57.140Z,2132.00
2018-04-22T04:49:57.134Z,2244.00
2018-04-22T04:50:57.128Z,2380.00
2018-04-22T04:51:57.136Z,2440.00
2018-04-22T04:52:57.123Z,2632.00
2018-04-22T04:53:57.122Z,2696.00
2018-04-22T04:54:57.122Z,2556.00
2018-04-22T04:55:57.111Z,2864.00
2018-04-22T04:56:57.113Z,3208.00
2018-04-22T04:57:57.108Z,3184.00
2018-04-22T04:58:57.105Z,3020.00
2018-04-22T04:59:57.101Z,3120.00
2018-04-22T05:00:57.098Z,3272.00
2018-04-22T05:01:57.100Z,3488.00
2018-04-22T05:02:57.091Z,3668.00
2018-04-22T05:03:57.088Z,3792.00
2018-04-22T05:04:57.086Z,3832.00
2018-04-22T05:05:57.078Z,3880.00
2018-04-22T05:06:57.078Z,3920.00
2018-04-22T05:07:57.076Z,3968.00
2018-04-22T05:08:57.076Z,3980.00
2018-04-22T05:09:57.070Z,3984.00
2018-04-22T05:10:57.064Z,3940.00
2018-04-22T05:11:57.065Z,3900.00
2018-04-22T05:12:57.069Z,3888.00
2018-04-22T05:13:57.060Z,3828.00
2018-04-22T05:14:57.063Z,3796.00
2018-04-22T05:15:57.057Z,3692.00
2018-04-22T05:16:57.049Z,3784.00
2018-04-22T05:17:57.055Z,3736.00
2018-04-22T05:18:57.056Z,3496.00
2018-04-22T05:19:57.048Z,3596.00
2018-04-22T05:20:57.044Z,3708.00
2018-04-22T05:21:57.044Z,3800.00
2018-04-22T05:22:57.045Z,3656.00
2018-04-22T05:23:57.046Z,3624.00
2018-04-22T05:24:57.052Z,3276.00
2018-04-22T05:25:57.039Z,2956.00
2018-04-22T05:26:57.041Z,3172.00
2018-04-22T05:27:57.037Z,3660.00
2018-04-22T05:28:57.035Z,3980.00
2018-04-22T05:29:57.034Z,4160.00
2018-04-22T05:30:57.035Z,4248.00
2018-04-22T05:31:57.034Z,4304.00
2018-04-22T05:32:57.031Z,4344.00
2018-04-22T05:33:57.032Z,4340.00
2018-04-22T05:34:57.032Z,4412.00
2018-04-22T05:35:57.033Z,4644.00
2018-04-22T05:36:57.027Z,5096.00
2018-04-22T05:37:57.033Z,5256.00
2018-04-22T05:38:57.030Z,5352.00
2018-04-22T05:39:57.031Z,5184.00
2018-04-22T05:40:57.027Z,5516.00
2018-04-22T05:41:57.032Z,6084.00
2018-04-22T05:42:57.028Z,7460.00
2018-04-22T05:43:57.026Z,8724.00
2018-04-22T05:44:57.027Z,8800.00
2018-04-22T05:45:57.029Z,8940.00
2018-04-22T05:46:57.022Z,9072.00
2018-04-22T05:47:57.027Z,9164.00
2018-04-22T05:48:57.029Z,9236.00
2018-04-22T05:49:57.032Z,8488.00
2018-04-22T05:50:57.030Z,6312.00
2018-04-22T05:51:57.032Z,5056.00
2018-04-22T05:52:57.031Z,4832.00
2018-04-22T05:53:57.037Z,4820.00
2018-04-22T05:54:57.034Z,4976.00
2018-04-22T05:55:57.033Z,5048.00
2018-04-22T05:56:57.036Z,5096.00
2018-04-22T05:57:57.037Z,5124.00
2018-04-22T05:58:57.039Z,5144.00
2018-04-22T05:59:57.038Z,5192.00
2018-04-22T06:00:57.035Z,5220.00
2018-04-22T06:01:57.043Z,5264.00
2018-04-22T06:02:57.043Z,5212.00
2018-04-22T06:03:57.046Z,5368.00
2018-04-22T06:04:57.045Z,5416.00
2018-04-22T06:05:57.048Z,5476.00
2018-04-22T06:06:57.049Z,5548.00
2018-04-22T06:07:57.052Z,5632.00
2018-04-22T06:08:57.056Z,5716.00
2018-04-22T06:09:57.054Z,5800.00
2018-04-22T06:10:57.059Z,5904.00
2018-04-22T06:11:57.064Z,6016.00
2018-04-22T06:12:57.062Z,6112.00
2018-04-22T06:13:57.070Z,6264.00
2018-04-22T06:14:57.076Z,6472.00
2018-04-22T06:15:57.071Z,7136.00
2018-04-22T06:16:57.074Z,10428.00
2018-04-22T06:17:57.076Z,15104.00
2018-04-22T06:18:57.079Z,15744.00
2018-04-22T06:19:57.084Z,16640.00
2018-04-22T06:20:57.086Z,16448.00
2018-04-22T06:21:57.089Z,16896.00
2018-04-22T06:22:57.104Z,18144.00
2018-04-22T06:23:57.096Z,18240.00
2018-04-22T06:24:57.095Z,18432.00
2018-04-22T06:25:57.100Z,18464.00
2018-04-22T06:26:57.105Z,18048.00
2018-04-22T06:27:57.110Z,18432.00
2018-04-22T06:28:57.115Z,18272.00
2018-04-22T06:29:57.122Z,18432.00
2018-04-22T06:30:57.125Z,18656.00
2018-04-22T06:31:57.133Z,17760.00
2018-04-22T06:32:57.130Z,19296.00
2018-04-22T06:33:57.133Z,17408.00
2018-04-22T06:34:57.182Z,19584.00
2018-04-22T06:35:57.142Z,20224.00
2018-04-22T06:36:57.148Z,18720.00
2018-04-22T06:37:57.153Z,19296.00
2018-04-22T06:38:57.156Z,21920.00
2018-04-22T06:39:57.163Z,21664.00
2018-04-22T06:40:57.170Z,22080.00
2018-04-22T06:41:57.169Z,22432.00
2018-04-22T06:42:57.184Z,24000.00
2018-04-22T06:43:57.183Z,21984.00
2018-04-22T06:44:57.182Z,21152.00
2018-04-22T06:45:57.188Z,22400.00
2018-04-22T06:46:57.194Z,21600.00
2018-04-22T06:47:57.196Z,21056.00
2018-04-22T06:48:57.199Z,21824.00
2018-04-22T06:49:57.212Z,22784.00
2018-04-22T06:50:57.214Z,23296.00
2018-04-22T06:51:57.221Z,26464.00
2018-04-22T06:52:57.215Z,26560.00
2018-04-22T06:53:57.229Z,29120.00
2018-04-22T06:54:57.229Z,29792.00
2018-04-22T06:55:57.239Z,30976.00
2018-04-22T06:56:57.239Z,31168.00
2018-04-22T06:57:57.244Z,32736.00
2018-04-22T06:58:57.250Z,34304.00
2018-04-22T06:59:57.254Z,32448.00
2018-04-22T07:00:57.258Z,33696.00
2018-04-22T07:01:57.264Z,35008.00
2018-04-22T07:02:57.270Z,36256.00
2018-04-22T07:03:57.278Z,35840.00
2018-04-22T07:04:57.281Z,38240.00
2018-04-22T07:05:57.288Z,37856.00
2018-04-22T07:06:57.297Z,36288.00
2018-04-22T07:07:57.298Z,37248.00
2018-04-22T07:08:57.309Z,36992.00
2018-04-22T07:09:57.309Z,38432.00
2018-04-22T07:10:57.313Z,39744.00
2018-04-22T07:11:57.324Z,38592.00
2018-04-22T07:12:57.324Z,38880.00
2018-04-22T07:13:57.333Z,41088.00
2018-04-22T07:14:57.337Z,43648.00
2018-04-22T07:15:57.343Z,44032.00
2018-04-22T07:16:57.351Z,44384.00
2018-04-22T07:17:57.356Z,44192.00
2018-04-22T07:18:57.358Z,44928.00
2018-04-22T07:19:57.366Z,47744.00
2018-04-22T07:20:57.368Z,47744.00
2018-04-22T07:21:57.374Z,44320.00
2018-04-22T07:22:57.381Z,42816.00
2018-04-22T07:23:57.441Z,49280.00
2018-04-22T07:24:57.399Z,47520.00
2018-04-22T07:25:57.402Z,41856.00
2018-04-22T07:26:57.407Z,45600.00
2018-04-22T07:27:57.416Z,49184.00
2018-04-22T07:28:57.421Z,48320.00
2018-04-22T07:29:57.427Z,48608.00
2018-04-22T07:30:57.434Z,49280.00
2018-04-22T07:31:57.443Z,46944.00
2018-04-22T07:32:57.449Z,49024.00
2018-04-22T07:33:57.457Z,53408.00
2018-04-22T07:34:57.464Z,51584.00
2018-04-22T07:35:57.470Z,48960.00
2018-04-22T07:36:57.482Z,51520.00
2018-04-22T07:37:57.485Z,54592.00
2018-04-22T07:38:57.491Z,51520.00
2018-04-22T07:39:57.503Z,47232.00
2018-04-22T07:40:57.504Z,49024.00
2018-04-22T07:41:57.518Z,50784.00
2018-04-22T07:42:57.528Z,50016.00
2018-04-22T07:43:57.531Z,50944.00
2018-04-22T07:44:57.537Z,51968.00
2018-04-22T07:45:57.545Z,51520.00
2018-04-22T07:46:57.553Z,53248.00
2018-04-22T07:47:57.565Z,53056.00
2018-04-22T07:48:57.573Z,52192.00
2018-04-22T07:49:57.578Z,47904.00
2018-04-22T07:50:57.585Z,47648.00
2018-04-22T07:51:57.594Z,52032.00
2018-04-22T07:52:57.600Z,50016.00
2018-04-22T07:53:57.610Z,45536.00
2018-04-22T07:54:57.618Z,29664.00
2018-04-22T07:55:57.628Z,26240.00
2018-04-22T07:56:57.640Z,10264.00
2018-04-22T07:57:57.643Z,12188.00
2018-04-22T07:58:57.649Z,11112.00
2018-04-22T07:59:57.656Z,19136.00
2018-04-22T08:00:57.663Z,19264.00
2018-04-22T08:01:57.675Z,10696.00
2018-04-22T08:02:57.683Z,8596.00
2018-04-22T08:03:57.688Z,9720.00
2018-04-22T08:04:57.695Z,7588.00
2018-04-22T08:05:57.707Z,6820.00
2018-04-22T08:06:57.711Z,7540.00
2018-04-22T08:07:57.716Z,8612.00
2018-04-22T08:08:57.722Z,22144.00
2018-04-22T08:09:57.731Z,35968.00
2018-04-22T08:10:57.741Z,35264.00
2018-04-22T08:11:57.744Z,17696.00
2018-04-22T08:12:57.749Z,24672.00
2018-04-22T08:13:57.763Z,41824.00
2018-04-22T08:14:57.762Z,39456.00
2018-04-22T08:15:57.774Z,11080.00
2018-04-22T08:16:57.775Z,9928.00
2018-04-22T08:17:57.780Z,4776.00
2018-04-22T08:18:57.787Z,4780.00
2018-04-22T08:19:57.798Z,5604.00
2018-04-22T08:20:57.801Z,11692.00
2018-04-22T08:21:57.806Z,35776.00
2018-04-22T08:22:57.812Z,48928.00
2018-04-22T08:23:57.818Z,59168.00
2018-04-22T08:24:57.823Z,61920.00
2018-04-22T08:25:57.828Z,58112.00
2018-04-22T08:26:57.837Z,31008.00
2018-04-22T08:27:57.841Z,10976.00
2018-04-22T08:28:57.846Z,9540.00
2018-04-22T08:29:57.853Z,7932.00
2018-04-22T08:30:57.860Z,5508.00
2018-04-22T08:31:57.869Z,4204.00
2018-04-22T08:32:57.872Z,4108.00
2018-04-22T08:33:57.914Z,4084.00
2018-04-22T08:34:57.882Z,4072.00
2018-04-22T08:35:57.889Z,4068.00
2018-04-22T08:36:57.893Z,4072.00
2018-04-22T08:37:57.901Z,4092.00
2018-04-22T08:38:57.907Z,4020.00
2018-04-22T08:39:57.909Z,4008.00
2018-04-22T08:40:57.914Z,3968.00
2018-04-22T08:41:57.918Z,3932.00
2018-04-22T08:42:57.923Z,4076.00
2018-04-22T08:43:57.935Z,4088.00
2018-04-22T08:44:57.932Z,3804.00
2018-04-22T08:45:57.938Z,3788.00
2018-04-22T08:46:57.944Z,3772.00
2018-04-22T08:47:57.948Z,3764.00
2018-04-22T08:48:57.953Z,3736.00
2018-04-22T08:49:57.959Z,3732.00
2018-04-22T08:50:57.962Z,3740.00
2018-04-22T08:51:57.965Z,3744.00
2018-04-22T08:52:57.967Z,3756.00
2018-04-22T08:53:57.977Z,3756.00
2018-04-22T08:54:57.979Z,3748.00
2018-04-22T08:55:57.982Z,3768.00
2018-04-22T08:56:57.995Z,3740.00
2018-04-22T08:57:57.990Z,3724.00
2018-04-22T08:58:58.002Z,3696.00
2018-04-22T08:59:58.001Z,3672.00
2018-04-22T09:00:58.011Z,3660.00
2018-04-22T09:01:58.011Z,3684.00
2018-04-22T09:02:58.009Z,3676.00
2018-04-22T09:03:58.014Z,3664.00
2018-04-22T09:04:58.019Z,3660.00
2018-04-22T09:05:58.024Z,3644.00
2018-04-22T09:06:58.025Z,3612.00
2018-04-22T09:07:58.031Z,3608.00
2018-04-22T09:08:58.041Z,3588.00
2018-04-22T09:09:58.035Z,3616.00
2018-04-22T09:10:58.040Z,3608.00
2018-04-22T09:11:58.043Z,3588.00
2018-04-22T09:12:58.045Z,3544.00
2018-04-22T09:13:58.048Z,3472.00
2018-04-22T09:14:58.052Z,3512.00
2018-04-22T09:15:58.057Z,3592.00
2018-04-22T09:16:58.058Z,3664.00
2018-04-22T09:17:58.072Z,3700.00
2018-04-22T09:18:58.071Z,3624.00
2018-04-22T09:19:58.066Z,3588.00
2018-04-22T09:20:58.081Z,3588.00
2018-04-22T09:21:58.096Z,3636.00
2018-04-22T09:22:58.078Z,3664.00
2018-04-22T09:23:58.085Z,3664.00
2018-04-22T09:24:58.087Z,3608.00
2018-04-22T09:25:58.089Z,3580.00
2018-04-22T09:26:58.098Z,3552.00
2018-04-22T09:27:58.145Z,3508.00
2018-04-22T09:28:58.099Z,3520.00
2018-04-22T09:29:58.104Z,3512.00
2018-04-22T09:30:58.105Z,3504.00
2018-04-22T09:31:58.111Z,3488.00
2018-04-22T09:32:58.113Z,3468.00
2018-04-22T09:33:58.117Z,3444.00
2018-04-22T09:34:58.122Z,3428.00
2018-04-22T09:35:58.121Z,3436.00
2018-04-22T09:36:58.126Z,3432.00
2018-04-22T09:37:58.131Z,3420.00
2018-04-22T09:38:58.137Z,3420.00
2018-04-22T09:39:58.145Z,3420.00
2018-04-22T09:40:58.140Z,3436.00
2018-04-22T09:41:58.145Z,3432.00
2018-04-22T09:42:58.142Z,3440.00
2018-04-22T09:43:58.150Z,3488.00
2018-04-22T09:44:58.155Z,3560.00
2018-04-22T09:45:58.170Z,3692.00
2018-04-22T09:46:58.163Z,3776.00
2018-04-22T09:47:58.166Z,3716.00
2018-04-22T09:48:58.172Z,3624.00
2018-04-22T09:49:58.226Z,3628.00
2018-04-22T09:50:58.171Z,3572.00
2018-04-22T09:51:58.175Z,3592.00
2018-04-22T09:52:58.180Z,3644.00
2018-04-22T09:53:58.184Z,3620.00
2018-04-22T09:54:58.195Z,3584.00
2018-04-22T09:55:58.190Z,3612.00
2018-04-22T09:56:58.193Z,3640.00
2018-04-22T09:57:58.197Z,3692.00
2018-04-22T09:58:58.199Z,3716.00
2018-04-22T09:59:58.204Z,3752.00
2018-04-22T10:00:58.206Z,3780.00
2018-04-22T10:01:58.236Z,3760.00
2018-04-22T10:02:58.218Z,3752.00
2018-04-22T10:03:58.226Z,3788.00
2018-04-22T10:04:58.288Z,3720.00
2018-04-22T10:05:58.221Z,3540.00
2018-04-22T10:06:58.226Z,3528.00
2018-04-22T10:07:58.232Z,3636.00
2018-04-22T10:08:58.240Z,3832.00
2018-04-22T10:09:58.247Z,3964.00
2018-04-22T10:10:58.303Z,3952.00
2018-04-22T10:11:58.246Z,3920.00
2018-04-22T10:12:58.245Z,3844.00
2018-04-22T10:13:58.252Z,3744.00
2018-04-22T10:14:58.253Z,3712.00
2018-04-22T10:15:58.266Z,3684.00
2018-04-22T10:16:58.273Z,3680.00
2018-04-22T10:17:58.264Z,3672.00
2018-04-22T10:18:58.271Z,3640.00
2018-04-22T10:19:58.271Z,3604.00
2018-04-22T10:20:58.269Z,3568.00
2018-04-22T10:21:58.281Z,3536.00
2018-04-22T10:22:58.279Z,3572.00
2018-04-22T10:23:58.284Z,3556.00
2018-04-22T10:24:58.288Z,3632.00
2018-04-22T10:25:58.291Z,3592.00
2018-04-22T10:26:58.297Z,3552.00
2018-04-22T10:27:58.298Z,3560.00
2018-04-22T10:28:58.300Z,3600.00
2018-04-22T10:29:58.310Z,3560.00
2018-04-22T10:30:58.309Z,3504.00
2018-04-22T10:31:58.318Z,3328.00
2018-04-22T10:32:58.316Z,3152.00
2018-04-22T10:33:58.319Z,3120.00
2018-04-22T10:34:58.329Z,3088.00
2018-04-22T10:35:58.331Z,2936.00
2018-04-22T10:36:58.328Z,3000.00
2018-04-22T10:37:58.334Z,3116.00
2018-04-22T10:38:58.344Z,3148.00
2018-04-22T10:39:58.345Z,3208.00
2018-04-22T10:40:58.351Z,3320.00
2018-04-22T10:41:58.403Z,3464.00
2018-04-22T10:42:58.356Z,3596.00
2018-04-22T10:43:58.361Z,3740.00
2018-04-22T10:44:58.359Z,3784.00
2018-04-22T10:45:58.363Z,3728.00
2018-04-22T10:46:58.368Z,3676.00
2018-04-22T10:47:58.377Z,3664.00
2018-04-22T10:48:58.376Z,3652.00
2018-04-22T10:49:58.386Z,3572.00
2018-04-22T10:50:58.405Z,3464.00
2018-04-22T10:51:58.383Z,3416.00
2018-04-22T10:52:58.393Z,3376.00
2018-04-22T10:53:58.390Z,3352.00
2018-04-22T10:54:58.397Z,3324.00
2018-04-22T10:55:58.405Z,3352.00
2018-04-22T10:56:58.406Z,3348.00
2018-04-22T10:57:58.518Z,3292.00
2018-04-22T10:58:58.416Z,3200.00
2018-04-22T10:59:58.417Z,3160.00
2018-04-22T11:00:58.422Z,3188.00
2018-04-22T11:01:58.469Z,3220.00
2018-04-22T11:02:58.430Z,3228.00
2018-04-22T11:03:58.431Z,3232.00
2018-04-22T11:04:58.441Z,3220.00
2018-04-22T11:05:58.440Z,3196.00
2018-04-22T11:06:58.442Z,3176.00
2018-04-22T11:07:58.450Z,3148.00
2018-04-22T11:08:58.452Z,3120.00
2018-04-22T11:09:58.466Z,3104.00
2018-04-22T11:10:58.459Z,3116.00
2018-04-22T11:11:58.464Z,3116.00
2018-04-22T11:12:58.466Z,3144.00
2018-04-22T11:13:58.470Z,3136.00
2018-04-22T11:14:58.480Z,3096.00
2018-04-22T11:15:58.495Z,3048.00
2018-04-22T11:16:58.490Z,3028.00
2018-04-22T11:17:58.489Z,3032.00
2018-04-22T11:18:58.489Z,3048.00
2018-04-22T11:19:58.496Z,3056.00
2018-04-22T11:20:58.498Z,3084.00
2018-04-22T11:21:58.501Z,3196.00
2018-04-22T11:22:58.508Z,3252.00
2018-04-22T11:23:58.517Z,3300.00
2018-04-22T11:24:58.513Z,3372.00
2018-04-22T11:25:58.516Z,3420.00
2018-04-22T11:26:58.530Z,3380.00
2018-04-22T11:27:58.530Z,3404.00
2018-04-22T11:28:58.540Z,3432.00
2018-04-22T11:29:58.528Z,3468.00
2018-04-22T11:30:58.533Z,3448.00
2018-04-22T11:31:58.539Z,3396.00
2018-04-22T11:32:58.545Z,3336.00
2018-04-22T11:33:58.554Z,3328.00
2018-04-22T11:34:58.553Z,3324.00
2018-04-22T11:35:58.556Z,3288.00
2018-04-22T11:36:58.560Z,3348.00
2018-04-22T11:37:58.607Z,3376.00
2018-04-22T11:38:58.568Z,3376.00
2018-04-22T11:39:58.574Z,3340.00
2018-04-22T11:40:58.577Z,3308.00
2018-04-22T11:41:58.626Z,3300.00
2018-04-22T11:42:58.629Z,3240.00
2018-04-22T11:43:58.589Z,3188.00
2018-04-22T11:44:58.593Z,3116.00
2018-04-22T11:45:58.604Z,3192.00
2018-04-22T11:46:58.602Z,3168.00
2018-04-22T11:47:58.605Z,3184.00
2018-04-22T11:49:01.179Z,3140.00
2018-04-22T11:49:58.613Z,3148.00
2018-04-22T11:50:58.663Z,3104.00
2018-04-22T11:51:58.624Z,3072.00
2018-04-22T11:52:58.624Z,3068.00
2018-04-22T11:53:58.634Z,3044.00
2018-04-22T11:54:58.631Z,3012.00
2018-04-22T11:55:58.650Z,2984.00
2018-04-22T11:56:58.641Z,2980.00
2018-04-22T11:57:58.644Z,2980.00
2018-04-22T11:58:58.648Z,2932.00
2018-04-22T11:59:58.725Z,2960.00
2018-04-22T12:00:58.658Z,2960.00
2018-04-22T12:01:58.661Z,2928.00
2018-04-22T12:02:58.665Z,2896.00
2018-04-22T12:03:58.671Z,2836.00
2018-04-22T12:04:58.678Z,2916.00
2018-04-22T12:05:58.677Z,2936.00
2018-04-22T12:06:58.682Z,2932.00
2018-04-22T12:07:58.685Z,2932.00
2018-04-22T12:08:58.686Z,2852.00
2018-04-22T12:09:58.703Z,2848.00
2018-04-22T12:10:58.697Z,2884.00
2018-04-22T12:11:58.705Z,2908.00
2018-04-22T12:12:58.704Z,2940.00
2018-04-22T12:13:58.710Z,2948.00
2018-04-22T12:14:58.710Z,2936.00
2018-04-22T12:15:58.718Z,2944.00
2018-04-22T12:16:58.718Z,2980.00
2018-04-22T12:17:58.724Z,2956.00
2018-04-22T12:18:58.734Z,2984.00
2018-04-22T12:19:58.735Z,3020.00
2018-04-22T12:20:58.742Z,3028.00
2018-04-22T12:21:58.751Z,3028.00
2018-04-22T12:22:58.749Z,2984.00
2018-04-22T12:23:58.752Z,2976.00